Time;durP1;ratioP1;P1;durP2;ratioP2;P2;SDS_P1;SDS_P2;PMS_P1;PMS_P2;Temp;Humidity;BMP_temperature;BMP_pressure;BME280_temperature;BME280_humidity;BME280_pressure;Samples;Min_cycle;Max_cycle;Signal;HPM_P1;HPM_P2
2022/07/04 00:02:08;;;;;;;;;1.00;1.00;;;;;21.26;63.61;101828.66;5077144;28;45308;-87
2022/07/04 00:04:34;;;;;;;;;1.00;1.00;;;;;21.23;63.51;101825.09;5059542;28;45676;-87
2022/07/04 00:07:00;;;;;;;;;0.50;0.50;;;;;21.19;63.91;101825.03;5082455;28;45607;-83
2022/07/04 00:09:25;;;;;;;;;1.25;1.25;;;;;21.19;63.34;101821.53;5080533;27;45249;-88
2022/07/04 00:11:51;;;;;;;;;1.00;1.00;;;;;21.18;64.23;101822.38;5097894;27;45737;-88
2022/07/04 00:14:17;;;;;;;;;1.00;1.00;;;;;21.12;64.12;101831.06;5078627;27;46503;-87
2022/07/04 00:16:42;;;;;;;;;1.00;1.00;;;;;21.07;64.33;101818.69;5096674;27;45448;-86
2022/07/04 00:19:08;;;;;;;;;1.00;1.00;;;;;21.03;65.18;101823.88;5095763;27;45327;-87
2022/07/04 00:21:33;;;;;;;;;1.00;1.00;;;;;21.02;65.20;101823.88;5077188;27;45371;-86
2022/07/04 00:24:00;;;;;;;;;1.00;1.00;;;;;21.03;65.20;101823.88;5079060;28;45808;-87
2022/07/04 00:26:25;;;;;;;;;1.00;1.00;;;;;21.00;64.29;101825.59;5085157;28;45275;-87
2022/07/04 00:28:51;;;;;;;;;2.75;2.00;;;;;21.01;64.23;101830.88;5085288;27;45208;-87
2022/07/04 00:31:16;;;;;;;;;1.75;1.75;;;;;21.04;65.26;101822.16;5091459;27;45469;-87
2022/07/04 00:33:42;;;;;;;;;1.00;1.00;;;;;21.04;65.16;101822.16;5087428;27;45190;-87
2022/07/04 00:36:08;;;;;;;;;3.00;2.00;;;;;21.00;65.44;101826.44;5081552;28;45277;-87
2022/07/04 00:38:33;;;;;;;;;1.00;1.00;;;;;20.98;65.15;101832.56;5078291;28;45316;-87
2022/07/04 00:40:59;;;;;;;;;1.00;1.00;;;;;20.96;64.71;101829.00;5092631;27;45368;-87
2022/07/04 00:43:27;;;;;;;;;1.25;1.25;;;;;20.99;65.21;101835.25;5097243;27;45347;-87
2022/07/04 00:45:53;;;;;;;;;1.00;1.00;;;;;20.97;64.70;101842.22;5078560;27;45259;-87
2022/07/04 00:48:18;;;;;;;;;0.75;0.75;;;;;20.94;65.26;101841.28;5096345;27;45441;-87
2022/07/04 00:50:48;;;;;;;;;1.00;1.00;;;;;20.92;64.29;101835.09;5082914;27;45566;-86
2022/07/04 00:53:14;;;;;;;;;0.25;0.25;;;;;20.84;64.33;101834.94;5076002;28;46212;-88
2022/07/04 00:55:41;;;;;;;;;0.25;0.25;;;;;20.74;65.27;101836.50;5077708;28;45758;-86
2022/07/04 00:58:08;;;;;;;;;0.00;0.00;;;;;20.71;65.27;101839.94;5078230;28;45326;-87
2022/07/04 01:00:33;;;;;;;;;1.00;1.00;;;;;20.70;65.79;101843.44;5081119;27;45402;-87
2022/07/04 01:02:59;;;;;;;;;0.75;0.75;;;;;20.68;65.59;101845.13;5076941;28;46236;-86
2022/07/04 01:05:25;;;;;;;;;1.00;1.00;;;;;20.65;65.32;101845.09;5076137;28;45416;-87
2022/07/04 01:07:51;;;;;;;;;0.50;0.00;;;;;20.61;65.28;101837.13;5076795;27;45318;-87
2022/07/04 01:10:19;;;;;;;;;1.50;0.50;;;;;20.59;64.96;101844.97;5084969;27;45675;-88
2022/07/04 01:12:45;;;;;;;;;1.00;1.00;;;;;20.54;65.60;101847.50;5096082;27;46002;-88
2022/07/04 01:15:10;;;;;;;;;0.00;0.00;;;;;20.53;65.10;101850.09;5096162;27;45430;-87
2022/07/04 01:17:36;;;;;;;;;0.00;0.00;;;;;20.46;65.41;101837.69;5078092;27;45350;-88
2022/07/04 01:20:02;;;;;;;;;0.00;0.00;;;;;20.47;65.77;101842.06;5093600;27;45584;-87
2022/07/04 01:22:28;;;;;;;;;0.75;0.75;;;;;20.48;65.76;101849.13;5084351;28;45370;-87
2022/07/04 01:24:54;;;;;;;;;1.00;1.00;;;;;20.46;65.89;101838.56;5102938;27;45385;-88
2022/07/04 01:27:19;;;;;;;;;0.00;0.00;;;;;20.45;66.05;101839.44;5103721;27;45351;-87
2022/07/04 01:29:45;;;;;;;;;2.00;0.00;;;;;20.43;66.20;101838.50;5104888;27;45327;-87
2022/07/04 01:32:11;;;;;;;;;1.00;1.00;;;;;20.39;66.18;101836.69;5086934;27;45319;-87
2022/07/04 01:34:36;;;;;;;;;0.00;0.00;;;;;20.36;66.61;101826.97;5067359;27;45275;-87
2022/07/04 01:37:02;;;;;;;;;1.00;0.00;;;;;20.37;66.20;101841.03;5087855;27;45308;-87
2022/07/04 01:39:29;;;;;;;;;2.00;1.00;;;;;20.38;66.87;101843.66;5086702;27;45361;-87
2022/07/04 01:41:54;;;;;;;;;1.00;1.00;;;;;20.36;66.95;101840.13;5082083;28;46538;-87
2022/07/04 01:44:21;;;;;;;;;1.50;0.50;;;;;20.33;66.31;101837.44;5072761;27;45449;-87
2022/07/04 01:46:47;;;;;;;;;1.75;1.00;;;;;20.29;67.35;101832.97;5101967;27;45487;-87
2022/07/04 01:49:12;;;;;;;;;2.50;1.00;;;;;20.25;67.29;101829.38;5100168;27;45482;-87
2022/07/04 01:51:46;;;;;;;;;1.00;1.00;;;;;20.19;68.12;101828.38;5085196;27;46061;-87
2022/07/04 01:54:12;;;;;;;;;0.00;0.00;;;;;20.18;68.65;101837.09;5079619;28;45695;-86
2022/07/04 01:56:39;;;;;;;;;1.00;1.00;;;;;20.17;68.74;101844.13;5060352;28;45477;-87
2022/07/04 01:59:04;;;;;;;;;1.00;1.00;;;;;20.13;68.11;101839.63;5078757;28;45483;-87
2022/07/04 02:01:30;;;;;;;;;1.00;1.00;;;;;20.07;69.17;101837.75;5095724;27;45911;-86
2022/07/04 02:04:00;;;;;;;;;0.00;0.00;;;;;20.03;68.99;101838.53;5098988;27;45392;-88
2022/07/04 02:06:25;;;;;;;;;2.00;1.00;;;;;19.99;69.14;101834.09;5099251;27;45402;-87
2022/07/04 02:14:20;;;;;;;;;1.00;1.00;;;;;19.95;69.18;101830.50;5077772;27;45346;-87
2022/07/04 02:16:46;;;;;;;;;0.50;0.00;;;;;19.95;69.07;101830.50;5075976;27;45420;-87
2022/07/04 02:19:12;;;;;;;;;1.00;1.00;;;;;19.92;69.86;101826.94;5104365;27;45496;-87
2022/07/04 02:21:37;;;;;;;;;1.00;1.00;;;;;19.90;69.96;101823.38;5079561;27;45847;-87
2022/07/04 02:24:03;;;;;;;;;1.00;1.00;;;;;19.85;70.13;101827.59;5077999;28;45403;-87
2022/07/04 02:26:29;;;;;;;;;0.75;0.75;;;;;19.80;70.55;101830.09;5078555;28;45309;-86
2022/07/04 02:28:55;;;;;;;;;1.00;1.00;;;;;19.76;70.64;101831.78;5078745;27;45421;-87
2022/07/04 02:31:20;;;;;;;;;1.00;1.00;;;;;19.76;70.76;101826.53;5099013;27;45910;-87
2022/07/04 02:33:46;;;;;;;;;1.00;1.00;;;;;19.76;71.02;101829.16;5107071;27;45390;-87
2022/07/04 02:36:11;;;;;;;;;0.75;0.75;;;;;19.72;71.53;101823.78;5106152;27;45227;-85
2022/07/04 02:38:38;;;;;;;;;0.75;0.75;;;;;19.69;71.49;101816.75;5063765;28;45609;-87
2022/07/04 02:41:05;;;;;;;;;1.00;1.00;;;;;19.65;71.78;101820.13;5069773;27;47971;-86
2022/07/04 02:43:31;;;;;;;;;1.25;1.25;;;;;19.64;71.61;101828.88;5101754;27;45235;-86
2022/07/04 02:45:56;;;;;;;;;1.00;1.00;;;;;19.62;72.44;101831.47;5104649;27;45413;-86
2022/07/04 02:48:22;;;;;;;;;3.00;2.00;;;;;19.58;73.08;101823.47;5097239;27;45316;-86
2022/07/04 02:50:48;;;;;;;;;1.00;1.00;;;;;19.55;72.95;101824.28;5079630;27;45985;-87
2022/07/04 02:53:13;;;;;;;;;3.25;1.25;;;;;19.57;73.64;101830.44;5078859;27;45782;-87
2022/07/04 02:55:39;;;;;;;;;1.00;1.00;;;;;19.56;73.31;101828.66;5098057;27;45311;-87
2022/07/04 02:58:05;;;;;;;;;0.75;0.00;;;;;19.56;73.54;101814.66;5098039;27;45343;-86
2022/07/04 03:00:30;;;;;;;;;3.75;2.75;;;;;19.54;73.75;101826.88;5067621;28;46800;-86
2022/07/04 03:02:56;;;;;;;;;1.00;1.00;;;;;19.51;74.19;101830.31;5077448;27;45473;-86
2022/07/04 03:05:21;;;;;;;;;2.00;2.00;;;;;19.52;73.65;101841.69;5059389;28;45356;-88
2022/07/04 03:07:47;;;;;;;;;3.50;0.75;;;;;19.55;74.07;101841.78;5079616;28;45277;-88
2022/07/04 03:10:13;;;;;;;;;2.00;2.00;;;;;19.54;74.13;101832.13;5088772;27;45914;-87
2022/07/04 03:12:38;;;;;;;;;2.00;2.00;;;;;19.51;74.07;101835.56;5101681;27;45189;-87
2022/07/04 03:15:04;;;;;;;;;2.00;2.00;;;;;19.47;74.34;101844.22;5097839;27;45263;-88
2022/07/04 03:17:30;;;;;;;;;2.00;2.00;;;;;19.44;74.28;101852.91;5098357;27;45574;-84
2022/07/04 03:19:56;;;;;;;;;1.50;1.50;;;;;19.43;74.44;101851.13;5091899;27;45276;-86
2022/07/04 03:22:22;;;;;;;;;1.75;1.25;;;;;19.40;74.36;101844.94;5077549;27;45362;-88
2022/07/04 03:24:48;;;;;;;;;1.25;1.25;;;;;19.37;74.69;101852.72;5077540;27;45375;-86
2022/07/04 03:27:13;;;;;;;;;2.00;2.00;;;;;19.36;75.44;101857.09;5077588;28;45406;-88
2022/07/04 03:29:39;;;;;;;;;1.50;1.50;;;;;19.37;75.28;101856.25;5078738;27;45382;-86
2022/07/04 03:32:05;;;;;;;;;1.00;1.00;;;;;19.36;74.98;101849.22;5065527;28;45368;-87
2022/07/04 03:34:31;;;;;;;;;2.75;2.00;;;;;19.36;75.08;101856.19;5085596;28;45306;-88
2022/07/04 03:36:56;;;;;;;;;2.25;2.25;;;;;19.35;75.17;101857.94;5085221;28;45170;-88
2022/07/04 03:39:22;;;;;;;;;3.00;2.00;;;;;19.36;75.08;101858.81;5082242;27;45276;-88
2022/07/04 03:41:48;;;;;;;;;1.00;1.00;;;;;19.36;75.46;101857.09;5103593;27;45379;-87
2022/07/04 03:44:13;;;;;;;;;3.00;1.00;;;;;19.35;75.42;101860.56;5080159;27;45303;-88
2022/07/04 03:46:39;;;;;;;;;1.00;1.00;;;;;19.34;75.51;101858.78;5097746;27;45280;-87
2022/07/04 03:49:05;;;;;;;;;1.75;1.75;;;;;19.36;75.13;101851.84;5096932;27;46094;-87
2022/07/04 03:51:31;;;;;;;;;2.00;2.00;;;;;19.34;75.65;101849.16;5078123;27;45429;-87
2022/07/04 03:53:57;;;;;;;;;1.75;1.75;;;;;19.28;76.54;101848.09;5077307;28;45453;-87
2022/07/04 03:56:22;;;;;;;;;2.00;2.00;;;;;19.26;76.35;101847.22;5076648;28;45387;-87
2022/07/04 03:58:48;;;;;;;;;1.00;1.00;;;;;19.25;76.76;101846.31;5076507;27;45405;-87
2022/07/04 04:01:18;;;;;;;;;1.25;1.25;;;;;19.26;77.26;101841.97;5092643;27;45473;-85
2022/07/04 04:06:30;;;;;;;;;3.25;1.50;;;;;19.12;78.64;101842.47;5100424;27;45261;-87
2022/07/04 04:08:56;;;;;;;;;2.25;2.25;;;;;19.11;77.62;101837.22;5097405;27;46006;-86
2022/07/04 04:11:22;;;;;;;;;2.00;1.00;;;;;19.14;78.12;101853.00;5079214;27;45350;-87
2022/07/04 04:13:48;;;;;;;;;1.25;1.25;;;;;19.15;78.08;101855.69;5076592;28;45382;-87
2022/07/04 04:16:13;;;;;;;;;1.00;1.00;;;;;19.16;77.64;101854.84;5076486;28;45276;-88
2022/07/04 04:18:39;;;;;;;;;0.25;0.25;;;;;19.13;77.91;101851.22;5081239;27;45524;-87
2022/07/04 04:21:05;;;;;;;;;1.00;1.00;;;;;19.10;77.83;101853.78;5083201;27;45408;-87
2022/07/04 04:23:31;;;;;;;;;3.00;1.75;;;;;19.08;77.76;101851.13;5077031;27;45419;-87
2022/07/04 04:25:56;;;;;;;;;2.00;2.00;;;;;19.07;78.04;101853.72;5077360;28;45700;-88
2022/07/04 04:28:23;;;;;;;;;3.00;2.00;;;;;19.06;78.13;101865.06;5078131;28;45255;-88
2022/07/04 04:30:50;;;;;;;;;1.25;1.25;;;;;19.03;78.70;101869.38;5091199;27;45628;-87
2022/07/04 04:33:16;;;;;;;;;1.00;1.00;;;;;19.01;78.22;101865.81;5106729;27;45223;-89
2022/07/04 04:35:41;;;;;;;;;1.75;1.75;;;;;19.02;78.21;101872.84;5105133;27;45366;-88
2022/07/04 04:38:07;;;;;;;;;1.75;1.75;;;;;19.03;78.45;101871.13;5104434;27;45397;-87
2022/07/04 04:40:33;;;;;;;;;4.50;1.50;;;;;19.08;78.38;101880.00;5094582;27;45386;-87
2022/07/04 04:42:58;;;;;;;;;1.00;1.00;;;;;19.10;77.77;101874.81;5085553;28;45342;-88
2022/07/04 04:45:24;;;;;;;;;1.00;1.00;;;;;19.06;78.11;101873.81;5059464;28;45275;-87
2022/07/04 04:47:51;;;;;;;;;1.75;1.00;;;;;18.99;78.57;101874.50;5075577;28;45495;-87
2022/07/04 04:50:17;;;;;;;;;0.00;0.00;;;;;19.00;78.57;101882.44;5083800;27;45369;-87
2022/07/04 04:52:42;;;;;;;;;1.50;1.25;;;;;18.99;78.60;101877.13;5096427;27;45312;-83
2022/07/04 04:55:09;;;;;;;;;2.25;2.00;;;;;19.01;78.23;101881.56;5101364;27;45335;-87
2022/07/04 04:57:34;;;;;;;;;2.00;2.00;;;;;19.06;78.54;101883.44;5102216;27;45244;-86
2022/07/04 05:00:00;;;;;;;;;3.00;3.00;;;;;19.03;79.03;101877.25;5088369;27;45192;-83
2022/07/04 05:02:26;;;;;;;;;3.00;2.00;;;;;19.03;79.07;101879.88;5103742;27;45272;-87
2022/07/04 05:04:53;;;;;;;;;2.50;2.00;;;;;19.04;79.13;101880.78;5100998;27;45558;-86
2022/07/04 05:07:19;;;;;;;;;3.00;2.00;;;;;19.00;79.75;101887.69;5099743;27;46201;-86
2022/07/04 05:09:44;;;;;;;;;1.50;0.75;;;;;18.98;79.66;101880.59;5098033;27;45260;-87
2022/07/04 05:12:10;;;;;;;;;2.00;2.00;;;;;18.95;79.09;101878.78;5099833;27;45331;-87
2022/07/04 05:14:36;;;;;;;;;3.00;2.00;;;;;18.96;79.65;101883.19;5100138;27;45409;-87
2022/07/04 05:17:02;;;;;;;;;2.25;2.00;;;;;18.98;79.99;101883.22;5099064;27;46061;-86
2022/07/04 05:19:29;;;;;;;;;1.75;1.75;;;;;18.95;79.96;101888.41;5098760;27;45682;-87
2022/07/04 05:21:54;;;;;;;;;1.00;1.00;;;;;18.94;80.25;101887.50;5101368;27;45305;-87
2022/07/04 05:24:20;;;;;;;;;2.50;2.50;;;;;18.94;80.26;101886.63;5107235;27;45157;-87
2022/07/04 05:26:46;;;;;;;;;2.00;2.00;;;;;18.97;80.52;101887.59;5099258;27;45312;-88
2022/07/04 05:29:11;;;;;;;;;2.00;2.00;;;;;18.99;80.92;101885.00;5081377;27;45387;-87
2022/07/04 05:31:37;;;;;;;;;2.50;1.00;;;;;18.97;80.81;101881.44;5087228;27;45470;-87
2022/07/04 05:34:03;;;;;;;;;2.75;1.75;;;;;18.96;81.21;101875.31;5089908;27;45851;-86
2022/07/04 05:36:29;;;;;;;;;2.00;2.00;;;;;19.00;81.66;101884.16;5085609;28;45434;-86
2022/07/04 05:38:55;;;;;;;;;2.00;2.00;;;;;18.99;81.83;101882.38;5082092;28;45752;-87
2022/07/04 05:41:20;;;;;;;;;2.50;2.50;;;;;19.02;81.58;101879.84;5081477;28;45477;-88
2022/07/04 05:43:46;;;;;;;;;2.75;2.75;;;;;19.03;81.71;101873.75;5080394;28;45253;-85
2022/07/04 05:46:12;;;;;;;;;3.00;2.25;;;;;19.09;81.46;101878.28;5097623;27;45490;-87
2022/07/04 05:48:38;;;;;;;;;2.75;2.75;;;;;19.10;82.43;101877.41;5092221;27;45672;-91
2022/07/04 05:51:04;;;;;;;;;2.00;2.00;;;;;19.10;82.31;101880.91;5069951;27;45223;-87
2022/07/04 05:53:30;;;;;;;;;4.00;2.00;;;;;19.11;82.88;101873.94;5083616;28;45388;-85
2022/07/04 05:55:55;;;;;;;;;3.00;1.50;;;;;19.10;81.98;101862.53;5080529;27;46178;-87
2022/07/04 05:58:21;;;;;;;;;3.00;2.00;;;;;19.15;82.54;101867.91;5107950;27;45096;-87
2022/07/04 06:00:47;;;;;;;;;3.25;2.75;;;;;19.20;82.18;101875.91;5102989;27;45443;-90
2022/07/04 06:03:15;;;;;;;;;3.00;2.25;;;;;19.21;82.36;101870.72;5096008;27;45662;-92
2022/07/04 06:05:43;;;;;;;;;4.00;3.00;;;;;19.23;81.86;101879.50;5090317;27;46231;-91
2022/07/04 06:08:08;;;;;;;;;4.00;1.75;;;;;19.21;81.79;101875.97;5091467;27;45201;-88
2022/07/04 06:10:34;;;;;;;;;3.00;2.75;;;;;19.21;81.87;101880.31;5089427;27;45170;-86
2022/07/04 06:13:00;;;;;;;;;2.25;2.25;;;;;19.17;82.24;101884.59;5099356;27;45493;-82
2022/07/04 06:15:25;;;;;;;;;2.00;2.00;;;;;19.17;82.42;101885.47;5090137;27;45381;-83
2022/07/04 06:17:51;;;;;;;;;7.75;6.25;;;;;19.16;82.48;101890.69;5090113;27;45177;-85
2022/07/04 06:20:17;;;;;;;;;7.00;3.00;;;;;19.13;83.08;101887.97;5065499;28;45687;-86
2022/07/04 06:22:48;;;;;;;;;3.00;3.00;;;;;19.12;83.07;101886.19;5078826;28;45846;-86
2022/07/04 06:25:19;;;;;;;;;3.75;3.00;;;;;19.14;83.81;101893.28;5085292;27;45454;-86
2022/07/04 06:27:46;;;;;;;;;2.00;2.00;;;;;19.12;83.86;101886.19;5056205;28;45429;-86
2022/07/04 06:30:15;;;;;;;;;4.00;2.00;;;;;19.16;83.42;101891.59;5059364;28;45323;-85
2022/07/04 06:32:52;;;;;;;;;4.50;2.75;;;;;19.18;83.33;101895.13;5072975;28;45514;-86
2022/07/04 06:38:06;;;;;;;;;4.75;4.00;;;;;19.20;83.54;101884.69;5085206;27;45839;-83
2022/07/04 06:40:31;;;;;;;;;3.00;3.00;;;;;19.21;84.28;101881.22;5067427;27;46274;-83
2022/07/04 06:42:57;;;;;;;;;4.00;3.00;;;;;19.21;83.59;101890.81;5083469;27;45700;-84
2022/07/04 06:45:23;;;;;;;;;4.25;2.50;;;;;19.21;84.36;101890.81;5086586;28;45197;-84
2022/07/04 06:47:48;;;;;;;;;2.00;2.00;;;;;19.17;83.92;101885.47;5085460;27;45276;-83
2022/07/04 06:50:14;;;;;;;;;3.00;3.00;;;;;19.22;84.21;101882.97;5084986;27;45220;-85
2022/07/04 06:52:40;;;;;;;;;4.00;3.50;;;;;19.24;83.40;101875.16;5060623;28;45325;-83
2022/07/04 06:55:06;;;;;;;;;3.75;2.75;;;;;19.20;83.39;101881.16;5076691;28;45515;-84
2022/07/04 06:57:32;;;;;;;;;3.75;2.75;;;;;19.24;83.96;101896.16;5062606;28;45791;-84
2022/07/04 06:59:58;;;;;;;;;2.50;2.50;;;;;19.28;84.46;101892.75;5078912;27;45754;-83
2022/07/04 07:02:24;;;;;;;;;2.00;2.00;;;;;19.30;83.77;101897.22;5077661;28;45459;-83
2022/07/04 07:04:50;;;;;;;;;2.00;2.00;;;;;19.33;83.52;101899.03;5076166;28;45485;-84
2022/07/04 07:07:15;;;;;;;;;3.00;1.00;;;;;19.32;83.86;101894.63;5077705;27;45462;-84
2022/07/04 07:09:41;;;;;;;;;2.50;2.00;;;;;19.37;83.27;101899.97;5082152;27;45382;-85
2022/07/04 07:12:07;;;;;;;;;2.00;1.25;;;;;19.38;83.36;101900.03;5082346;27;45441;-84
2022/07/04 07:14:32;;;;;;;;;3.00;2.00;;;;;19.41;83.80;101913.22;5077269;28;45406;-87
2022/07/04 07:16:59;;;;;;;;;3.00;2.00;;;;;19.40;83.68;101908.81;5059694;28;45904;-87
2022/07/04 07:19:24;;;;;;;;;3.75;2.00;;;;;19.37;83.78;101899.97;5067864;28;45565;-88
2022/07/04 07:21:50;;;;;;;;;2.00;2.00;;;;;19.42;83.79;101907.13;5063831;28;45603;-87
2022/07/04 07:24:16;;;;;;;;;0.50;0.25;;;;;19.42;83.49;101907.13;5060559;28;45305;-89
2022/07/04 07:26:41;;;;;;;;;3.00;1.50;;;;;19.44;83.15;101910.69;5073557;27;45309;-86
2022/07/04 07:29:07;;;;;;;;;2.00;2.00;;;;;19.43;82.14;101908.91;5096686;27;45469;-85
2022/07/04 07:31:32;;;;;;;;;3.25;3.00;;;;;19.43;81.83;101902.78;5099070;27;45321;-92
2022/07/04 07:33:58;;;;;;;;;3.00;2.25;;;;;19.52;81.93;101916.16;5098602;27;45412;-83
2022/07/04 07:36:24;;;;;;;;;3.00;3.00;;;;;19.53;80.72;101907.44;5102619;27;45744;-83
2022/07/04 07:38:49;;;;;;;;;5.25;3.00;;;;;19.50;80.63;101904.72;5072709;28;45370;-83
2022/07/04 07:41:15;;;;;;;;;4.00;2.00;;;;;19.51;80.87;101903.88;5076240;28;45358;-86
2022/07/04 07:43:40;;;;;;;;;4.00;2.75;;;;;19.53;80.89;101902.16;5083185;27;45784;-82
2022/07/04 07:46:08;;;;;;;;;1.00;1.00;;;;;19.56;80.50;101902.22;5090456;27;45501;-81
2022/07/04 07:48:34;;;;;;;;;2.00;2.00;;;;;19.61;79.88;101898.00;5093044;27;45461;-83
2022/07/04 07:50:59;;;;;;;;;2.50;2.00;;;;;19.65;78.99;101906.84;5062475;27;45400;-83
2022/07/04 07:53:25;;;;;;;;;3.00;2.00;;;;;19.67;78.15;101910.38;5072844;28;46684;-83
2022/07/04 07:55:51;;;;;;;;;3.00;2.00;;;;;19.67;78.81;101912.09;5075558;28;45362;-85
2022/07/04 07:58:17;;;;;;;;;3.00;2.00;;;;;19.72;78.34;101910.50;5077599;28;45270;-82
2022/07/04 08:00:42;;;;;;;;;3.00;2.00;;;;;19.75;77.68;101900.94;5082139;27;45837;-82
2022/07/04 08:05:52;;;;;;;;;2.25;2.25;;;;;19.78;76.39;101895.78;5083098;28;45768;-83
2022/07/04 08:08:18;;;;;;;;;3.25;2.25;;;;;19.80;75.82;101894.09;5079618;28;45307;-83
2022/07/04 08:10:43;;;;;;;;;1.50;1.50;;;;;19.85;74.99;101893.28;5075692;28;45418;-84
2022/07/04 08:13:10;;;;;;;;;2.00;2.00;;;;;19.82;75.41;101885.31;5067741;28;46705;-84
2022/07/04 08:15:35;;;;;;;;;2.25;2.00;;;;;19.88;74.29;101893.41;5062054;28;45391;-83
2022/07/04 08:18:01;;;;;;;;;2.50;1.75;;;;;19.89;73.49;101885.53;5075539;27;45361;-84
2022/07/04 08:20:27;;;;;;;;;5.25;1.00;;;;;19.94;72.66;101891.81;5096119;27;45357;-84
2022/07/04 08:22:53;;;;;;;;;3.00;2.00;;;;;19.97;72.28;101884.84;5091540;27;45546;-84
2022/07/04 08:25:19;;;;;;;;;3.00;3.00;;;;;20.00;71.79;101891.06;5089385;27;45338;-84
2022/07/04 08:27:45;;;;;;;;;1.25;1.00;;;;;20.01;70.00;101887.59;5078694;28;45325;-86
2022/07/04 08:30:11;;;;;;;;;1.50;1.00;;;;;20.07;68.69;101890.34;5075815;28;45441;-84
2022/07/04 08:32:37;;;;;;;;;2.75;0.75;;;;;20.09;67.17;101901.78;5092861;27;46316;-83
2022/07/04 08:35:04;;;;;;;;;3.25;1.50;;;;;20.06;69.29;101878.03;5086170;27;45360;-84
2022/07/04 08:37:29;;;;;;;;;2.00;2.00;;;;;20.08;69.04;101883.34;5072659;27;45435;-84
2022/07/04 08:39:55;;;;;;;;;2.75;1.25;;;;;20.09;69.59;101869.31;5079329;27;45410;-83
2022/07/04 08:42:22;;;;;;;;;1.75;1.75;;;;;20.14;69.35;101877.34;5100094;27;45948;-84
2022/07/04 08:44:51;;;;;;;;;2.25;2.00;;;;;20.18;70.07;101879.16;5089263;27;45775;-86
2022/07/04 08:47:24;;;;;;;;;2.25;2.00;;;;;20.24;69.89;101880.19;5080123;27;45449;-84
2022/07/04 08:50:21;;;;;;;;;0.00;0.00;;;;;20.25;65.59;101875.81;5074756;28;45379;-85
2022/07/04 08:52:54;;;;;;;;;1.00;1.00;;;;;20.22;64.41;101871.38;5077524;27;45574;-84
2022/07/04 09:00:50;;;;;;;;;3.50;1.75;;;;;20.25;65.53;101860.03;5092325;27;45540;-86
2022/07/04 09:03:18;;;;;;;;;1.25;1.00;;;;;20.28;65.19;101870.63;5057519;28;46255;-85
2022/07/04 09:05:44;;;;;;;;;1.00;1.00;;;;;20.25;65.47;101863.56;5076557;28;45352;-83
2022/07/04 09:08:09;;;;;;;;;1.00;1.00;;;;;20.32;64.94;101864.59;5083573;27;45472;-84
2022/07/04 09:10:38;;;;;;;;;1.00;1.00;;;;;20.37;64.07;101867.31;5076212;27;45682;-84
2022/07/04 09:13:06;;;;;;;;;1.00;1.00;;;;;20.40;63.41;101864.75;5080150;27;45387;-86
2022/07/04 09:15:33;;;;;;;;;1.50;1.50;;;;;20.42;63.35;101866.56;5075231;28;45530;-87
2022/07/04 09:18:00;;;;;;;;;0.25;0.25;;;;;20.44;63.29;101861.31;5078941;27;45728;-87
2022/07/04 09:20:28;;;;;;;;;0.25;0.25;;;;;20.44;61.22;101857.81;5069719;28;45695;-85
2022/07/04 09:22:54;;;;;;;;;1.00;1.00;;;;;20.47;59.45;101866.66;5076244;27;45692;-85
2022/07/04 09:25:22;;;;;;;;;1.50;0.75;;;;;20.47;58.86;101860.50;5089201;27;45679;-88
2022/07/04 09:27:53;;;;;;;;;1.00;1.00;;;;;20.48;59.83;101860.53;5071078;27;45490;-86
2022/07/04 09:30:23;;;;;;;;;1.00;1.00;;;;;20.54;60.37;101857.16;5082654;27;45433;-84
2022/07/04 09:32:51;;;;;;;;;1.00;1.00;;;;;20.57;61.41;101854.59;5062240;28;45443;-81
2022/07/04 09:35:22;;;;;;;;;1.25;1.25;;;;;20.61;62.32;101848.50;5073952;28;46269;-82
2022/07/04 09:37:51;;;;;;;;;2.00;2.00;;;;;20.65;62.26;101853.00;5079650;27;45422;-82
2022/07/04 09:40:26;;;;;;;;;1.50;1.50;;;;;20.71;61.72;101854.84;5077681;27;45375;-84
2022/07/04 09:42:53;;;;;;;;;2.75;1.50;;;;;20.74;60.41;101854.94;5083145;27;45975;-82
2022/07/04 09:45:22;;;;;;;;;2.25;1.25;;;;;20.77;58.55;101851.50;5087766;27;45810;-80
2022/07/04 09:47:48;;;;;;;;;1.00;1.00;;;;;20.82;59.27;101849.81;5098511;27;45269;-82
2022/07/04 09:50:19;;;;;;;;;2.00;2.00;;;;;20.85;59.39;101860.41;5087045;27;45449;-82
2022/07/04 09:52:56;;;;;;;;;1.25;1.00;;;;;20.87;58.78;101851.69;5068242;28;45805;-82
2022/07/04 09:55:25;;;;;;;;;2.00;2.00;;;;;20.88;57.98;101857.84;5085707;28;45420;-81
2022/07/04 09:57:52;;;;;;;;;2.00;2.00;;;;;20.90;57.76;101858.75;5080073;27;45385;-82
2022/07/04 10:00:29;;;;;;;;;1.00;1.00;;;;;20.94;56.39;101855.31;5080824;28;45561;-83
2022/07/04 10:02:59;;;;;;;;;0.25;0.25;;;;;20.95;55.75;101854.47;5078499;27;45429;-82
2022/07/04 10:05:29;;;;;;;;;2.00;2.00;;;;;20.97;58.66;101860.66;5078948;28;45748;-82
2022/07/04 10:07:56;;;;;;;;;2.25;2.00;;;;;20.98;59.66;101862.44;5077400;28;45533;-82
2022/07/04 10:10:24;;;;;;;;;4.00;1.00;;;;;21.01;58.58;101845.78;5059945;28;45671;-82
2022/07/04 10:12:51;;;;;;;;;1.00;1.00;;;;;21.02;58.36;101845.81;5085956;28;46012;-81
2022/07/04 10:15:18;;;;;;;;;2.00;1.00;;;;;21.03;56.98;101844.94;5087475;27;45760;-82
2022/07/04 10:17:44;;;;;;;;;1.25;1.00;;;;;21.09;57.53;101844.16;5083628;28;45713;-82
2022/07/04 10:20:11;;;;;;;;;1.00;1.00;;;;;21.12;57.91;101833.69;5066658;28;45289;-82
2022/07/04 10:22:41;;;;;;;;;2.50;1.00;;;;;21.17;58.42;101836.41;5063389;27;46803;-83
2022/07/04 10:25:11;;;;;;;;;1.75;1.75;;;;;21.15;57.22;101825.88;5080578;28;45830;-82
2022/07/04 10:27:37;;;;;;;;;1.50;1.00;;;;;21.22;55.26;101834.72;5080954;27;45301;-82
2022/07/04 10:30:06;;;;;;;;;1.00;1.00;;;;;21.27;54.44;101833.06;5060591;27;45551;-82
2022/07/04 10:32:33;;;;;;;;;5.00;1.00;;;;;21.28;55.72;101832.22;5078270;27;45466;-82
2022/07/04 10:34:59;;;;;;;;;1.00;1.00;;;;;21.30;55.55;101833.13;5077739;27;45250;-82
2022/07/04 10:38:04;;;;;;;;;1.00;1.00;;;;;21.37;55.23;101833.22;5078122;28;45223;-81
2022/07/04 10:40:54;;;;;;;;;3.00;2.00;;;;;21.40;55.87;101842.06;5059997;28;45263;-82
2022/07/04 10:43:40;;;;;;;;;3.00;2.00;;;;;21.44;55.82;101837.72;5078310;27;46059;-82
2022/07/04 10:46:15;;;;;;;;;2.50;1.75;;;;;21.46;55.53;101828.09;5065655;28;45437;-82
2022/07/04 10:48:55;;;;;;;;;2.75;1.25;;;;;21.49;56.04;101828.16;5086178;28;45372;-82
2022/07/04 10:51:42;;;;;;;;;2.50;2.00;;;;;21.53;55.87;101832.63;5077183;28;45424;-82
2022/07/04 10:54:34;;;;;;;;;1.00;1.00;;;;;21.59;55.69;101830.09;5078024;28;45379;-81
2022/07/04 10:57:13;;;;;;;;;1.00;1.00;;;;;21.64;55.60;101819.63;5077736;28;45802;-82
2022/07/04 10:59:41;;;;;;;;;2.00;2.00;;;;;21.68;53.74;101828.47;5077926;28;45367;-82
2022/07/04 11:02:07;;;;;;;;;2.00;2.00;;;;;21.71;52.88;101828.53;5077920;28;45329;-82
2022/07/04 11:04:56;;;;;;;;;2.00;2.00;;;;;21.75;52.60;101830.34;5085939;28;45741;-81
2022/07/04 11:07:43;;;;;;;;;2.00;2.00;;;;;21.78;52.28;101825.09;5065986;28;45695;-83
2022/07/04 11:12:55;;;;;;;;;1.00;1.00;;;;;21.90;53.45;101821.78;5085932;28;45534;-82
2022/07/04 11:15:27;;;;;;;;;1.50;1.50;;;;;21.97;53.05;101820.13;5083490;27;45440;-82
2022/07/04 11:17:56;;;;;;;;;3.25;2.00;;;;;22.04;52.75;101809.63;5078415;28;45816;-82
2022/07/04 11:20:23;;;;;;;;;2.25;1.75;;;;;22.11;52.27;101818.53;5077402;28;45399;-82
2022/07/04 11:22:52;;;;;;;;;1.00;1.00;;;;;22.16;52.24;101821.22;5077329;27;45233;-82
2022/07/04 11:25:18;;;;;;;;;2.00;1.50;;;;;22.18;51.09;101815.13;5059046;28;46158;-83
2022/07/04 11:27:43;;;;;;;;;1.00;1.00;;;;;22.20;51.55;101815.13;5077666;28;45501;-82
2022/07/04 11:30:10;;;;;;;;;2.00;2.00;;;;;22.19;52.26;101819.50;5059266;28;45379;-83
2022/07/04 11:32:38;;;;;;;;;1.75;1.75;;;;;22.24;52.17;101806.41;5077489;28;45546;-83
2022/07/04 11:35:05;;;;;;;;;1.75;1.75;;;;;22.30;52.05;101808.22;5079359;28;46226;-83
2022/07/04 11:37:31;;;;;;;;;2.00;2.00;;;;;22.34;52.12;101804.75;5083028;28;45599;-83
2022/07/04 11:45:48;;;;;;;;;2.50;2.00;;;;;22.47;51.15;101801.41;5080074;27;45720;-82
2022/07/04 11:48:24;;;;;;;;;2.25;2.25;;;;;22.45;50.88;101789.09;5081066;28;45456;-82
2022/07/04 11:50:50;;;;;;;;;2.00;2.00;;;;;22.48;51.90;101791.72;5080196;28;45460;-83
2022/07/04 11:53:19;;;;;;;;;2.00;2.00;;;;;22.54;51.62;101792.69;5081487;28;45444;-82